Time;durP1;ratioP1;P1;durP2;ratioP2;P2;SDS_P1;SDS_P2;PMS_P1;PMS_P2;Temp;Humidity;BMP_temperature;BMP_pressure;BME280_temperature;BME280_humidity;BME280_pressure;Samples;Min_cycle;Max_cycle;Signal;HPM_P1;HPM_P2
2023/06/05 00:00:09;;;;;;;8.27;5.55;;;12.70;99.90;;;;;;5081855;28;20036;-91
2023/06/05 00:02:47;;;;;;;7.80;5.22;;;12.70;99.90;;;;;;5083754;28;20032;-90
2023/06/05 00:05:27;;;;;;;9.25;4.70;;;12.70;99.90;;;;;;5098258;28;20092;-90
2023/06/05 00:07:56;;;;;;;8.15;4.75;;;12.70;99.90;;;;;;5081321;28;20115;-91
2023/06/05 00:10:27;;;;;;;6.53;4.45;;;12.70;99.90;;;;;;5065381;28;20035;-92
2023/06/05 00:12:53;;;;;;;9.02;5.28;;;12.70;99.90;;;;;;5083282;28;20035;-90
2023/06/05 00:15:22;;;;;;;7.35;4.40;;;12.70;99.90;;;;;;5102633;28;20035;-90
2023/06/05 00:17:59;;;;;;;6.05;4.05;;;12.70;99.90;;;;;;5085372;28;20061;-90
2023/06/05 00:20:34;;;;;;;5.15;3.60;;;12.70;99.90;;;;;;5088420;28;20045;-89
2023/06/05 00:23:03;;;;;;;8.45;3.88;;;12.70;99.90;;;;;;5102075;28;20034;-90
2023/06/05 00:25:34;;;;;;;9.07;3.80;;;12.70;99.90;;;;;;5085646;28;20032;-90
2023/06/05 00:28:05;;;;;;;5.35;2.95;;;12.70;99.90;;;;;;5068926;28;20084;-90
2023/06/05 00:30:36;;;;;;;7.50;3.30;;;12.70;99.90;;;;;;5068963;28;20035;-91
2023/06/05 00:33:05;;;;;;;4.78;3.25;;;12.70;99.90;;;;;;5085690;28;20023;-90
2023/06/05 00:35:35;;;;;;;6.18;3.45;;;12.70;99.90;;;;;;5085750;28;20063;-91
2023/06/05 00:38:06;;;;;;;5.25;3.45;;;12.60;99.90;;;;;;5084962;28;20032;-91
2023/06/05 00:40:35;;;;;;;6.97;3.50;;;12.60;99.90;;;;;;5102132;28;20105;-91
2023/06/05 00:43:01;;;;;;;6.07;3.47;;;12.60;99.90;;;;;;5085102;28;20042;-91
2023/06/05 00:45:28;;;;;;;5.38;3.30;;;12.60;99.90;;;;;;5085080;28;20035;-90
2023/06/05 00:47:56;;;;;;;7.40;3.80;;;12.60;99.90;;;;;;5068493;28;20100;-91
2023/06/05 00:50:25;;;;;;;5.32;3.60;;;12.60;99.90;;;;;;5102308;28;20093;-90
2023/06/05 00:52:55;;;;;;;5.93;3.55;;;12.60;99.90;;;;;;5101398;28;20052;-91
2023/06/05 00:55:25;;;;;;;7.53;3.20;;;12.60;99.90;;;;;;5085222;28;20035;-91
2023/06/05 00:57:56;;;;;;;5.47;2.83;;;12.60;99.90;;;;;;5089250;28;20468;-92
2023/06/05 01:00:26;;;;;;;5.25;2.97;;;12.60;99.90;;;;;;5101366;28;20051;-90
2023/06/05 01:02:58;;;;;;;5.10;3.17;;;12.60;99.90;;;;;;5084470;28;20081;-90
2023/06/05 01:05:26;;;;;;;5.32;3.45;;;12.60;99.90;;;;;;5068037;28;20153;-90
2023/06/05 01:08:03;;;;;;;5.82;3.63;;;12.60;99.90;;;;;;5067757;28;20031;-91
2023/06/05 01:10:32;;;;;;;5.47;3.30;;;12.60;99.90;;;;;;5101435;28;20119;-91
2023/06/05 01:13:06;;;;;;;6.05;3.33;;;12.60;99.90;;;;;;5084560;28;20040;-91
2023/06/05 01:15:40;;;;;;;5.47;3.13;;;12.60;99.90;;;;;;5101168;28;20024;-91
2023/06/05 01:18:24;;;;;;;5.68;3.10;;;12.50;99.90;;;;;;5077335;28;20141;-91
2023/06/05 01:20:56;;;;;;;5.07;2.95;;;12.50;99.90;;;;;;5084236;28;20028;-90
2023/06/05 01:23:25;;;;;;;4.30;2.65;;;12.50;99.90;;;;;;5067467;28;20032;-91
2023/06/05 01:26:07;;;;;;;4.10;2.42;;;12.50;99.90;;;;;;5084883;28;20187;-90
2023/06/05 01:28:36;;;;;;;4.40;2.50;;;12.50;99.90;;;;;;5100925;28;20024;-91
2023/06/05 01:31:19;;;;;;;4.28;2.33;;;12.40;99.90;;;;;;5067657;28;20112;-90
2023/06/05 01:33:56;;;;;;;4.68;2.10;;;12.40;99.90;;;;;;5067913;28;20066;-90
2023/06/05 01:36:26;;;;;;;3.33;2.10;;;12.40;99.90;;;;;;5084482;28;20038;-91
2023/06/05 01:38:54;;;;;;;4.10;2.20;;;12.40;99.90;;;;;;5081790;28;20031;-89
2023/06/05 01:41:21;;;;;;;3.72;2.33;;;12.40;99.90;;;;;;5083581;28;20164;-90
2023/06/05 01:43:57;;;;;;;4.75;2.20;;;12.40;99.90;;;;;;5083825;28;20031;-91
2023/06/05 01:46:24;;;;;;;4.50;2.63;;;12.40;99.90;;;;;;5083864;28;20039;-91
2023/06/05 01:48:56;;;;;;;4.57;2.40;;;12.40;99.90;;;;;;5083418;28;20039;-91
2023/06/05 01:51:22;;;;;;;3.97;2.20;;;12.40;99.90;;;;;;5083879;28;20123;-90
2023/06/05 01:53:48;;;;;;;3.85;2.38;;;12.40;99.90;;;;;;5083511;28;20420;-90
2023/06/05 01:56:19;;;;;;;3.80;2.20;;;12.40;99.90;;;;;;5072395;28;20032;-90
2023/06/05 01:58:49;;;;;;;3.70;2.10;;;12.40;99.90;;;;;;5099612;28;20076;-90
2023/06/05 02:01:24;;;;;;;5.07;2.60;;;12.40;99.90;;;;;;5066458;28;20032;-90
2023/06/05 02:03:53;;;;;;;5.20;2.80;;;12.40;99.90;;;;;;5063060;28;20024;-90
2023/06/05 02:06:19;;;;;;;5.50;2.28;;;12.30;99.90;;;;;;5097567;28;20027;-90
2023/06/05 02:08:48;;;;;;;5.00;2.35;;;12.30;99.90;;;;;;5079212;28;20047;-90
2023/06/05 02:11:15;;;;;;;4.13;2.28;;;12.30;99.90;;;;;;5083213;28;20058;-90
2023/06/05 02:13:44;;;;;;;3.78;2.33;;;12.30;99.90;;;;;;5066296;28;20337;-90
2023/06/05 02:16:17;;;;;;;3.90;2.47;;;12.40;99.90;;;;;;5075180;28;20028;-90
2023/06/05 02:18:52;;;;;;;4.38;2.50;;;12.50;99.90;;;;;;5064115;28;20371;-91
2023/06/05 02:21:21;;;;;;;3.47;2.08;;;12.40;99.90;;;;;;5083494;28;20496;-90
2023/06/05 02:23:54;;;;;;;4.93;2.60;;;12.40;99.90;;;;;;5066488;28;20084;-91
2023/06/05 02:26:25;;;;;;;5.32;2.58;;;12.40;99.90;;;;;;5067467;28;20032;-90
2023/06/05 02:28:54;;;;;;;4.25;2.70;;;12.40;99.90;;;;;;5066019;28;20028;-90
2023/06/05 02:31:27;;;;;;;6.32;3.03;;;12.40;99.90;;;;;;5083195;28;20097;-90
2023/06/05 02:33:55;;;;;;;6.15;3.15;;;12.40;99.90;;;;;;5066080;28;20111;-91
2023/06/05 02:36:24;;;;;;;6.03;3.10;;;12.40;99.90;;;;;;5099031;28;20122;-91
2023/06/05 02:38:58;;;;;;;6.20;3.17;;;12.40;99.90;;;;;;5089017;28;20034;-91
2023/06/05 02:41:26;;;;;;;4.60;3.13;;;12.40;99.90;;;;;;5082781;28;20424;-91
2023/06/05 02:43:58;;;;;;;5.28;2.92;;;12.40;99.90;;;;;;5099907;28;20058;-91
2023/06/05 02:46:27;;;;;;;6.32;3.72;;;12.40;99.90;;;;;;5066917;28;20058;-90
2023/06/05 02:48:55;;;;;;;9.85;4.55;;;12.40;99.90;;;;;;5067041;28;20399;-91
2023/06/05 02:51:44;;;;;;;6.18;4.50;;;12.40;99.90;;;;;;5067474;28;20331;-91
2023/06/05 02:54:10;;;;;;;7.32;5.10;;;12.40;99.90;;;;;;5082552;28;20024;-91
2023/06/05 02:56:37;;;;;;;6.50;4.97;;;12.50;99.90;;;;;;5066088;28;20040;-91
2023/06/05 02:59:09;;;;;;;6.75;4.90;;;12.40;99.90;;;;;;5065828;28;20031;-91
2023/06/05 03:01:37;;;;;;;9.07;5.13;;;12.40;99.90;;;;;;5083225;28;20027;-91
2023/06/05 03:04:08;;;;;;;8.00;5.00;;;12.40;99.90;;;;;;5082337;28;20023;-91
2023/06/05 03:06:38;;;;;;;7.78;5.60;;;12.40;99.90;;;;;;5066581;28;20114;-91
2023/06/05 03:09:08;;;;;;;8.60;5.03;;;12.40;99.90;;;;;;5055364;28;20089;-90
2023/06/05 03:11:42;;;;;;;8.32;5.55;;;12.50;99.90;;;;;;5082912;28;20434;-91
2023/06/05 03:14:16;;;;;;;8.15;5.82;;;12.60;99.90;;;;;;5066273;28;20070;-91
2023/06/05 03:16:52;;;;;;;9.82;6.63;;;12.50;99.90;;;;;;5065653;28;20428;-92
2023/06/05 03:19:21;;;;;;;10.15;5.47;;;12.50;99.90;;;;;;5066187;28;20073;-90
2023/06/05 03:21:48;;;;;;;9.80;5.60;;;12.40;99.90;;;;;;5065150;28;20027;-90
2023/06/05 03:24:15;;;;;;;8.82;5.22;;;12.50;99.90;;;;;;5081998;28;20043;-91
2023/06/05 03:26:44;;;;;;;7.88;5.13;;;12.50;99.90;;;;;;5065354;28;20035;-92
2023/06/05 03:29:21;;;;;;;8.95;5.32;;;12.40;99.90;;;;;;5078001;28;20050;-90
2023/06/05 03:31:50;;;;;;;9.50;5.78;;;12.40;99.90;;;;;;5062310;28;20040;-91
2023/06/05 03:34:20;;;;;;;8.52;5.85;;;12.50;99.90;;;;;;5045718;28;20085;-90
2023/06/05 03:36:58;;;;;;;7.65;5.43;;;12.50;99.90;;;;;;5066071;28;20027;-90
2023/06/05 03:39:28;;;;;;;7.80;5.28;;;12.50;99.90;;;;;;5065677;28;20044;-90
2023/06/05 03:41:55;;;;;;;7.72;5.00;;;12.50;99.90;;;;;;5065222;28;20386;-90
2023/06/05 03:44:23;;;;;;;6.50;4.70;;;12.50;99.90;;;;;;5082632;28;20160;-90
2023/06/05 03:46:55;;;;;;;6.30;4.20;;;12.50;99.90;;;;;;5083305;28;20080;-91
2023/06/05 03:49:37;;;;;;;6.32;4.57;;;12.40;99.90;;;;;;5072619;28;20031;-91
2023/06/05 03:52:04;;;;;;;7.78;4.40;;;12.40;99.90;;;;;;5069642;28;20043;-91
2023/06/05 03:54:33;;;;;;;8.10;4.25;;;12.40;99.90;;;;;;5069385;28;20103;-90
2023/06/05 03:57:04;;;;;;;6.78;3.67;;;12.40;99.90;;;;;;5069566;28;20417;-90
2023/06/05 03:59:33;;;;;;;7.05;4.18;;;12.30;99.90;;;;;;5068751;28;20054;-90
2023/06/05 04:02:08;;;;;;;7.00;4.30;;;12.30;99.90;;;;;;5064616;28;20036;-90
2023/06/05 04:04:39;;;;;;;8.50;3.83;;;12.40;99.90;;;;;;5068297;28;20027;-90
2023/06/05 04:07:06;;;;;;;5.93;3.42;;;12.40;99.90;;;;;;5068569;28;20028;-91
2023/06/05 04:09:41;;;;;;;5.20;3.35;;;12.40;99.90;;;;;;5071552;28;20077;-90
2023/06/05 04:12:14;;;;;;;4.88;2.97;;;12.40;99.90;;;;;;5070696;27;20350;-91
2023/06/05 04:14:44;;;;;;;4.82;2.80;;;12.40;99.90;;;;;;5053054;28;20077;-90
2023/06/05 04:17:13;;;;;;;5.38;2.85;;;12.40;99.90;;;;;;5063336;28;20324;-90
2023/06/05 04:19:49;;;;;;;4.70;2.40;;;12.40;99.90;;;;;;5085080;28;20028;-91
2023/06/05 04:22:18;;;;;;;4.28;2.38;;;12.40;99.90;;;;;;5085387;28;20325;-90
2023/06/05 04:24:49;;;;;;;4.50;2.50;;;12.40;99.90;;;;;;5069608;28;20024;-90
2023/06/05 04:27:20;;;;;;;3.88;2.33;;;12.40;99.90;;;;;;5075138;28;20028;-90
2023/06/05 04:29:47;;;;;;;5.22;2.60;;;12.40;99.90;;;;;;5082380;28;20044;-90
2023/06/05 04:32:22;;;;;;;4.38;2.17;;;12.40;99.90;;;;;;5065065;28;20405;-90
2023/06/05 04:34:52;;;;;;;4.85;2.40;;;12.40;99.90;;;;;;5085405;28;20091;-90
2023/06/05 04:37:31;;;;;;;4.10;2.17;;;12.40;99.90;;;;;;5087597;28;20023;-90
2023/06/05 04:40:09;;;;;;;4.13;2.20;;;12.50;99.90;;;;;;5068633;28;20347;-90
2023/06/05 04:42:43;;;;;;;5.10;2.42;;;12.50;99.90;;;;;;5084991;28;20058;-90
2023/06/05 04:45:13;;;;;;;4.35;2.60;;;12.50;99.90;;;;;;5069191;28;20044;-90
2023/06/05 04:47:45;;;;;;;3.35;2.10;;;12.50;99.90;;;;;;5101901;28;20031;-91
2023/06/05 04:50:28;;;;;;;3.80;2.40;;;12.50;99.90;;;;;;5084960;28;20035;-91
2023/06/05 04:53:04;;;;;;;4.25;2.60;;;12.50;99.90;;;;;;5067886;28;20087;-90
2023/06/05 04:55:34;;;;;;;4.03;2.28;;;12.50;99.90;;;;;;5068559;28;20032;-90
2023/06/05 04:58:08;;;;;;;3.28;2.25;;;12.50;99.90;;;;;;5083302;28;20031;-90
2023/06/05 05:01:04;;;;;;;5.35;2.70;;;12.50;99.90;;;;;;5074486;28;20039;-90
2023/06/05 05:03:38;;;;;;;4.93;2.42;;;12.50;99.90;;;;;;5069614;28;20439;-90
2023/06/05 05:06:07;;;;;;;4.90;2.42;;;12.50;99.90;;;;;;5067972;28;20093;-90
2023/06/05 05:08:46;;;;;;;4.68;2.47;;;12.60;99.90;;;;;;5068260;28;20435;-90
2023/06/05 05:11:15;;;;;;;5.47;2.17;;;12.60;99.90;;;;;;5084635;28;20038;-90
2023/06/05 05:13:52;;;;;;;4.32;2.63;;;12.60;99.90;;;;;;5085485;28;20027;-89
2023/06/05 05:16:25;;;;;;;7.68;2.65;;;12.60;99.90;;;;;;5067490;28;20030;-89
2023/06/05 05:18:53;;;;;;;6.75;3.05;;;12.70;99.90;;;;;;5031302;28;20390;-90
2023/06/05 05:21:22;;;;;;;5.30;2.28;;;12.60;99.90;;;;;;5050323;28;20421;-91
2023/06/05 05:23:57;;;;;;;5.82;2.38;;;12.70;99.90;;;;;;5069818;28;20024;-90
2023/06/05 05:26:26;;;;;;;6.53;2.50;;;12.70;99.90;;;;;;5063802;28;20493;-89
2023/06/05 05:28:55;;;;;;;5.53;2.60;;;12.70;99.90;;;;;;5114298;28;20455;-91
2023/06/05 05:31:30;;;;;;;5.03;2.80;;;12.70;99.90;;;;;;5051294;28;20047;-90
2023/06/05 05:34:06;;;;;;;5.38;2.78;;;12.80;99.90;;;;;;5081971;28;20035;-91
2023/06/05 05:36:40;;;;;;;;;;;12.70;99.90;;;;;;5064752;28;20031;-91
2023/06/05 05:39:09;;;;;;;4.50;2.75;;;12.70;99.90;;;;;;5075206;28;19912;-91
2023/06/05 05:41:40;;;;;;;5.50;3.70;;;12.70;99.90;;;;;;5082211;28;20074;-91
2023/06/05 05:44:17;;;;;;;5.13;3.22;;;12.80;99.90;;;;;;5064912;28;20059;-91
2023/06/05 05:47:03;;;;;;;5.50;3.67;;;12.80;99.90;;;;;;5067816;28;20439;-91
2023/06/05 05:49:37;;;;;;;6.50;3.70;;;12.80;99.90;;;;;;5066889;28;20042;-90
2023/06/05 05:52:13;;;;;;;7.20;3.70;;;12.80;99.90;;;;;;5068320;28;20083;-91
2023/06/05 05:54:44;;;;;;;6.28;3.80;;;12.80;99.90;;;;;;5086254;28;20038;-90
2023/06/05 05:57:13;;;;;;;8.18;4.70;;;12.80;99.90;;;;;;5083113;28;20024;-90
2023/06/05 05:59:42;;;;;;;11.18;4.00;;;12.80;99.90;;;;;;5100529;28;20351;-90
2023/06/05 06:02:09;;;;;;;6.60;3.50;;;12.90;99.90;;;;;;5082095;28;20055;-91
2023/06/05 06:05:12;;;;;;;6.60;3.92;;;12.90;99.90;;;;;;5082867;28;20043;-90
2023/06/05 06:07:40;;;;;;;6.82;3.75;;;12.90;99.90;;;;;;5069082;28;20452;-90
2023/06/05 06:10:07;;;;;;;7.43;3.92;;;12.90;99.90;;;;;;5061472;28;20444;-91
2023/06/05 06:12:44;;;;;;;6.95;3.58;;;12.90;99.90;;;;;;5072265;27;20050;-89
2023/06/05 06:15:14;;;;;;;7.97;3.78;;;12.90;99.90;;;;;;5083105;28;20027;-90
2023/06/05 06:17:51;;;;;;;6.78;3.90;;;13.00;99.90;;;;;;5063844;28;20085;-90
2023/06/05 06:20:22;;;;;;;7.13;3.65;;;13.00;99.90;;;;;;5082294;28;20035;-90
2023/06/05 06:22:51;;;;;;;6.80;3.70;;;13.00;99.90;;;;;;5082067;28;20028;-90
2023/06/05 06:25:25;;;;;;;9.50;3.85;;;13.00;99.90;;;;;;5078605;28;20027;-90
2023/06/05 06:27:53;;;;;;;5.68;3.63;;;13.00;99.90;;;;;;5071876;27;20080;-90
2023/06/05 06:30:21;;;;;;;8.15;4.25;;;13.00;99.90;;;;;;5086671;28;20114;-90
2023/06/05 06:32:50;;;;;;;6.82;3.88;;;13.00;99.90;;;;;;5084974;28;20024;-90
2023/06/05 06:35:20;;;;;;;7.60;3.83;;;13.10;99.90;;;;;;5077796;28;20114;-90
2023/06/05 06:37:57;;;;;;;6.68;3.58;;;13.10;99.90;;;;;;5086143;28;20174;-90
2023/06/05 06:40:28;;;;;;;8.45;4.00;;;13.20;99.90;;;;;;5097206;28;20039;-90
2023/06/05 06:42:57;;;;;;;6.65;4.00;;;13.20;99.90;;;;;;5074645;28;20067;-90
2023/06/05 06:45:50;;;;;;;7.13;3.70;;;13.20;99.90;;;;;;5095396;27;20416;-90
2023/06/05 06:48:20;;;;;;;8.52;3.33;;;13.30;99.90;;;;;;5078558;28;20023;-90
2023/06/05 06:50:58;;;;;;;7.88;4.20;;;13.30;99.90;;;;;;5075987;28;20031;-90
2023/06/05 06:53:24;;;;;;;5.70;4.13;;;13.30;99.90;;;;;;5092932;28;20036;-90
2023/06/05 06:55:51;;;;;;;8.45;4.38;;;13.30;99.90;;;;;;5090120;28;20032;-89
2023/06/05 06:58:24;;;;;;;7.00;4.45;;;13.30;99.90;;;;;;5023387;28;20429;-90
2023/06/05 07:00:50;;;;;;;8.40;4.22;;;13.30;99.90;;;;;;5061580;28;20432;-90
2023/06/05 07:03:44;;;;;;;8.52;3.75;;;13.40;99.90;;;;;;5081736;28;20024;-90
2023/06/05 07:06:23;;;;;;;7.90;3.47;;;13.40;99.90;;;;;;5092924;28;20088;-89
2023/06/05 07:08:52;;;;;;;7.20;4.00;;;13.40;99.90;;;;;;5062021;28;20028;-91
2023/06/05 07:11:27;;;;;;;6.55;3.45;;;13.40;99.90;;;;;;5081210;28;20036;-90
2023/06/05 07:13:58;;;;;;;7.10;3.50;;;13.50;99.90;;;;;;5059953;28;20039;-91
2023/06/05 07:16:24;;;;;;;6.07;3.67;;;13.40;99.90;;;;;;5082393;28;20480;-91
2023/06/05 07:18:54;;;;;;;7.47;3.72;;;13.40;99.90;;;;;;5067471;27;20111;-90
2023/06/05 07:21:23;;;;;;;5.90;3.63;;;13.50;99.90;;;;;;5081938;28;20035;-90
2023/06/05 07:24:04;;;;;;;7.50;4.10;;;13.50;99.90;;;;;;5083212;28;20020;-89
2023/06/05 07:26:42;;;;;;;6.13;3.83;;;13.60;99.90;;;;;;5080854;28;20028;-90
2023/06/05 07:29:19;;;;;;;7.53;3.80;;;13.60;99.90;;;;;;5081841;28;20097;-90
2023/06/05 07:32:06;;;;;;;;;;;;;;;;;;;;;
2023/06/05 07:34:38;;;;;;;7.45;4.20;;;13.70;99.90;;;;;;5082372;28;20327;-90
2023/06/05 07:37:14;;;;;;;8.57;4.18;;;13.70;99.90;;;;;;5064971;28;20038;-91
2023/06/05 07:39:40;;;;;;;6.60;4.20;;;13.70;99.90;;;;;;5070219;28;20055;-91
2023/06/05 07:42:13;;;;;;;6.00;3.80;;;13.80;99.90;;;;;;5073094;28;20067;-91
2023/06/05 07:44:42;;;;;;;6.55;3.65;;;13.80;99.90;;;;;;5088194;28;20097;-91
2023/06/05 07:47:11;;;;;;;7.65;3.60;;;13.90;99.90;;;;;;5036852;28;20166;-91
2023/06/05 07:49:37;;;;;;;4.78;3.40;;;13.90;99.90;;;;;;5062119;28;20085;-90
2023/06/05 07:52:06;;;;;;;9.60;3.92;;;14.00;99.90;;;;;;5041042;28;20063;-90
2023/06/05 07:54:36;;;;;;;6.82;4.30;;;14.00;99.90;;;;;;5071522;28;20028;-91
2023/06/05 07:57:09;;;;;;;8.32;4.10;;;13.90;99.90;;;;;;5025647;28;20052;-90
2023/06/05 07:59:37;;;;;;;6.00;3.92;;;14.00;99.90;;;;;;5024901;28;20085;-90
2023/06/05 08:02:13;;;;;;;6.65;4.63;;;13.90;99.90;;;;;;5045419;28;20136;-91
2023/06/05 08:04:42;;;;;;;5.88;3.67;;;14.00;99.90;;;;;;5078031;28;20351;-91
2023/06/05 08:07:21;;;;;;;6.22;3.78;;;14.00;99.90;;;;;;5045297;28;20036;-91
2023/06/05 08:09:50;;;;;;;6.47;4.00;;;14.10;99.90;;;;;;5044779;28;20035;-91
2023/06/05 08:12:21;;;;;;;7.38;4.20;;;14.20;99.90;;;;;;5061290;28;20032;-92
2023/06/05 08:14:53;;;;;;;6.68;4.00;;;14.20;99.90;;;;;;5078365;28;20046;-92
2023/06/05 08:17:29;;;;;;;8.35;4.88;;;14.20;99.90;;;;;;5045677;28;20039;-90
2023/06/05 08:20:05;;;;;;;6.47;4.20;;;14.30;99.90;;;;;;5045373;28;20434;-90
2023/06/05 08:22:40;;;;;;;7.53;4.68;;;14.30;99.90;;;;;;5072163;28;20035;-90
2023/06/05 08:25:14;;;;;;;9.68;5.10;;;14.40;99.90;;;;;;5041282;28;20036;-90
2023/06/05 08:27:48;;;;;;;6.50;3.83;;;14.30;99.90;;;;;;5044607;28;20029;-90
2023/06/05 08:30:16;;;;;;;5.97;4.18;;;14.40;99.90;;;;;;5028141;28;20101;-91
2023/06/05 08:32:54;;;;;;;5.90;3.38;;;14.50;99.90;;;;;;5041782;28;20040;-91
2023/06/05 08:35:35;;;;;;;7.22;3.92;;;14.50;99.90;;;;;;5060227;28;20106;-91
2023/06/05 08:38:10;;;;;;;7.60;4.40;;;14.50;99.90;;;;;;5029152;28;20028;-92
2023/06/05 08:40:39;;;;;;;7.72;4.40;;;14.60;99.90;;;;;;5062502;28;20050;-91
2023/06/05 08:43:08;;;;;;;8.85;4.78;;;14.60;99.90;;;;;;5091627;28;20063;-90
2023/06/05 08:45:54;;;;;;;;;;;14.70;99.90;;;;;;5083782;28;20024;-92
2023/06/05 08:48:30;;;;;;;6.82;4.50;;;14.70;99.90;;;;;;5081322;28;19915;-91
2023/06/05 08:51:01;;;;;;;7.20;4.63;;;14.80;99.90;;;;;;5080118;28;20095;-92
2023/06/05 08:53:37;;;;;;;6.03;4.13;;;14.90;99.90;;;;;;5047428;28;20310;-91
2023/06/05 08:56:11;;;;;;;8.05;4.45;;;14.90;99.90;;;;;;5064122;28;20032;-90
2023/06/05 08:58:44;;;;;;;7.90;4.10;;;14.90;99.90;;;;;;5081222;28;20028;-91
2023/06/05 09:01:19;;;;;;;8.02;4.68;;;15.00;99.90;;;;;;5081007;28;20318;-91
2023/06/05 09:03:53;;;;;;;6.40;4.30;;;15.00;99.90;;;;;;5080059;28;20029;-90
2023/06/05 09:06:24;;;;;;;7.72;4.40;;;15.00;99.90;;;;;;5064415;28;20020;-91
2023/06/05 09:08:50;;;;;;;6.63;4.30;;;15.00;99.90;;;;;;5064011;28;20024;-91
2023/06/05 09:11:32;;;;;;;7.70;3.78;;;15.10;99.90;;;;;;5080256;28;20480;-91
2023/06/05 09:14:06;;;;;;;7.70;3.83;;;15.20;99.90;;;;;;5106713;28;20020;-91
2023/06/05 09:16:37;;;;;;;6.65;4.30;;;15.20;99.90;;;;;;5062683;28;20040;-92
2023/06/05 09:19:10;;;;;;;6.80;3.97;;;15.20;99.90;;;;;;5061852;28;20074;-91
2023/06/05 09:22:00;;;;;;;6.18;4.10;;;15.30;99.90;;;;;;5050455;28;20058;-92
2023/06/05 09:24:40;;;;;;;7.93;3.90;;;15.40;99.90;;;;;;5096769;28;20032;-90
2023/06/05 09:27:26;;;;;;;6.45;4.18;;;15.50;99.90;;;;;;5097150;28;20028;-92
2023/06/05 09:30:04;;;;;;;6.07;4.13;;;15.50;99.90;;;;;;5080556;28;20127;-91
2023/06/05 09:32:42;;;;;;;6.22;4.28;;;15.60;99.90;;;;;;5097153;28;20081;-91
2023/06/05 09:35:19;;;;;;;6.57;4.20;;;15.70;99.90;;;;;;5076754;28;20171;-92
2023/06/05 09:37:47;;;;;;;6.75;4.38;;;15.90;99.90;;;;;;5080143;28;20024;-91
2023/06/05 09:40:40;;;;;;;6.75;4.05;;;16.10;99.90;;;;;;5081001;28;20105;-90
2023/06/05 09:43:25;;;;;;;6.82;4.75;;;16.10;99.90;;;;;;5066439;28;20447;-91
2023/06/05 09:46:01;;;;;;;7.95;4.40;;;16.20;99.90;;;;;;5080724;28;20081;-92
2023/06/05 09:48:37;;;;;;;;;;;;;;;;;;;;;
2023/06/05 09:51:11;;;;;;;6.45;4.63;;;16.30;99.90;;;;;;5097087;28;20032;-91
2023/06/05 09:53:45;;;;;;;7.63;5.40;;;16.50;99.90;;;;;;5096222;28;20103;-91
2023/06/05 09:56:16;;;;;;;6.20;4.55;;;16.50;99.90;;;;;;5063533;28;20455;-90
2023/06/05 09:58:59;;;;;;;7.55;4.35;;;16.60;99.90;;;;;;5063267;28;20036;-91
2023/06/05 10:01:30;;;;;;;7.85;4.32;;;16.80;99.90;;;;;;5062706;28;20051;-91
2023/06/05 10:04:11;;;;;;;6.80;4.20;;;16.90;99.90;;;;;;5073038;28;20101;-91
2023/06/05 10:06:43;;;;;;;6.88;4.30;;;17.00;99.90;;;;;;5061436;28;20317;-91
2023/06/05 10:09:29;;;;;;;8.07;4.90;;;16.90;99.90;;;;;;5081253;28;20070;-91
2023/06/05 10:12:01;;;;;;;6.03;3.92;;;16.80;99.90;;;;;;5062767;28;20036;-91
2023/06/05 10:14:30;;;;;;;7.30;4.35;;;16.80;99.90;;;;;;5079203;28;20340;-91
2023/06/05 10:16:58;;;;;;;7.20;4.43;;;16.80;99.90;;;;;;5079220;28;20408;-91
2023/06/05 10:19:27;;;;;;;6.68;4.15;;;16.90;99.90;;;;;;5099982;28;20037;-91
2023/06/05 10:21:54;;;;;;;7.78;4.32;;;17.00;99.90;;;;;;5064704;28;20294;-90
2023/06/05 10:24:34;;;;;;;8.30;4.82;;;17.10;99.90;;;;;;5072878;28;20024;-91
2023/06/05 10:27:11;;;;;;;7.90;5.13;;;17.20;99.90;;;;;;5064077;28;20072;-91
2023/06/05 10:29:53;;;;;;;6.65;4.85;;;17.30;99.90;;;;;;5078711;28;20032;-92
2023/06/05 10:32:34;;;;;;;7.47;4.30;;;17.40;99.90;;;;;;5095356;28;20224;-91
2023/06/05 10:35:36;;;;;;;5.82;4.28;;;17.60;99.90;;;;;;5078909;28;20441;-91
2023/06/05 10:38:17;;;;;;;6.93;4.40;;;17.80;99.90;;;;;;5025365;28;20039;-91
2023/06/05 10:40:56;;;;;;;5.63;4.30;;;17.90;99.90;;;;;;5074751;28;20328;-91
2023/06/05 10:43:48;;;;;;;6.63;4.50;;;17.90;99.90;;;;;;5059607;28;20428;-91
2023/06/05 10:46:29;;;;;;;6.65;5.03;;;17.80;99.90;;;;;;5078718;28;20429;-90
2023/06/05 10:49:12;;;;;;;5.63;3.85;;;17.70;99.90;;;;;;5062316;28;20035;-91
2023/06/05 10:51:43;;;;;;;6.55;4.20;;;17.80;99.90;;;;;;5046040;28;20036;-91
2023/06/05 10:54:17;;;;;;;6.68;4.40;;;17.80;99.90;;;;;;5061911;28;20032;-92
2023/06/05 10:56:58;;;;;;;6.80;3.90;;;17.80;99.90;;;;;;5061891;28;20036;-92
2023/06/05 10:59:34;;;;;;;7.20;4.50;;;17.90;99.90;;;;;;5045323;28;20055;-91
2023/06/05 11:02:11;;;;;;;6.80;4.65;;;17.90;99.90;;;;;;5078501;28;20464;-91
2023/06/05 11:04:46;;;;;;;7.07;3.88;;;17.90;99.90;;;;;;5045031;28;20148;-91
2023/06/05 11:07:20;;;;;;;6.93;4.20;;;18.00;99.90;;;;;;5078524;28;20056;-93
2023/06/05 11:10:05;;;;;;;5.90;3.80;;;18.10;99.90;;;;;;5062380;28;20038;-93
2023/06/05 11:12:35;;;;;;;6.22;3.88;;;18.20;99.90;;;;;;5046224;28;20101;-92
2023/06/05 11:15:02;;;;;;;5.70;4.03;;;18.30;99.90;;;;;;5062223;28;20043;-92
2023/06/05 11:18:14;;;;;;;7.88;4.55;;;18.40;99.90;;;;;;5058104;28;20421;-93
2023/06/05 11:20:50;;;;;;;7.15;4.63;;;18.40;99.90;;;;;;5066312;28;20130;-92
2023/06/05 11:23:19;;;;;;;6.55;4.15;;;18.40;99.90;;;;;;5078101;28;20129;-92
2023/06/05 11:25:51;;;;;;;6.82;4.40;;;18.40;99.90;;;;;;5044173;28;20615;-92
2023/06/05 11:28:45;;;;;;;9.23;4.80;;;18.50;99.90;;;;;;5041936;28;20029;-93
2023/06/05 11:31:30;;;;;;;8.27;4.43;;;18.60;99.90;;;;;;5062453;28;20164;-92
2023/06/05 11:34:10;;;;;;;7.32;4.18;;;18.60;99.90;;;;;;5061879;28;20051;-93
2023/06/05 11:36:37;;;;;;;6.70;4.60;;;18.50;99.90;;;;;;5058769;28;20047;-92
2023/06/05 11:39:04;;;;;;;6.32;4.32;;;18.60;99.90;;;;;;5061732;28;20152;-92
2023/06/05 11:41:34;;;;;;;7.50;4.03;;;18.50;99.90;;;;;;5058188;28;20032;-93
2023/06/05 11:44:10;;;;;;;7.50;4.80;;;18.60;99.90;;;;;;5073767;28;20029;-93
2023/06/05 11:46:41;;;;;;;7.28;4.38;;;18.70;99.90;;;;;;5058943;28;20032;-92
2023/06/05 11:49:22;;;;;;;6.65;4.63;;;18.80;99.90;;;;;;5078135;28;20069;-93
2023/06/05 11:51:48;;;;;;;7.18;4.57;;;18.90;99.90;;;;;;5061897;28;20024;-92
2023/06/05 11:54:40;;;;;;;7.03;4.90;;;18.80;99.90;;;;;;5045309;28;20036;-92
2023/06/05 11:57:17;;;;;;;8.70;5.18;;;18.80;99.90;;;;;;5077238;28;20044;-92
2023/06/05 11:59:53;;;;;;;7.43;5.63;;;18.90;99.90;;;;;;5042641;28;20055;-92
2023/06/05 12:02:22;;;;;;;7.20;5.28;;;19.00;99.90;;;;;;5091719;28;20155;-92
2023/06/05 12:04:58;;;;;;;7.28;4.93;;;19.10;99.90;;;;;;5046139;28;20039;-92
2023/06/05 12:07:28;;;;;;;6.60;4.88;;;19.10;99.90;;;;;;5061685;28;20031;-92
2023/06/05 12:10:10;;;;;;;8.43;5.72;;;19.10;99.90;;;;;;5065244;28;20024;-92
2023/06/05 12:13:15;;;;;;;8.50;5.35;;;19.10;99.90;;;;;;5057975;28;20032;-93
2023/06/05 12:15:57;;;;;;;8.43;5.57;;;19.00;99.90;;;;;;5065383;28;20317;-93
2023/06/05 12:18:36;;;;;;;8.43;5.63;;;18.90;99.90;;;;;;5046800;28;20216;-93
2023/06/05 12:21:06;;;;;;;10.88;5.18;;;19.00;99.90;;;;;;5066305;28;20036;-92
2023/06/05 12:23:43;;;;;;;8.77;5.50;;;19.00;99.90;;;;;;5080816;28;20020;-92
2023/06/05 12:26:09;;;;;;;7.43;5.50;;;19.00;99.90;;;;;;5094601;28;20027;-93
2023/06/05 12:28:46;;;;;;;8.82;5.53;;;19.10;99.90;;;;;;5059155;28;20020;-90
2023/06/05 12:31:35;;;;;;;9.52;5.95;;;19.20;99.90;;;;;;5059178;28;20428;-90
2023/06/05 12:34:03;;;;;;;8.32;6.10;;;19.10;99.90;;;;;;5048555;28;20032;-90
2023/06/05 12:36:41;;;;;;;11.07;6.20;;;19.10;99.90;;;;;;5047645;28;20036;-90
2023/06/05 12:39:10;;;;;;;9.65;5.53;;;19.00;99.90;;;;;;5080608;28;20031;-90
2023/06/05 12:41:41;;;;;;;7.47;5.50;;;19.00;99.90;;;;;;5080880;28;20038;-90
2023/06/05 12:44:10;;;;;;;6.97;5.20;;;19.10;99.90;;;;;;5047830;28;20036;-90
2023/06/05 12:46:37;;;;;;;7.10;5.80;;;19.00;99.90;;;;;;5047516;28;20348;-89
2023/06/05 12:49:05;;;;;;;9.20;6.60;;;18.90;99.90;;;;;;5080618;28;20030;-90
2023/06/05 12:51:36;;;;;;;8.23;6.07;;;19.00;99.90;;;;;;5081321;28;20099;-89
2023/06/05 12:54:05;;;;;;;7.80;5.97;;;19.00;99.90;;;;;;5081434;28;20036;-89
2023/06/05 12:56:35;;;;;;;8.45;5.65;;;19.00;99.90;;;;;;5065301;28;20032;-90
2023/06/05 12:59:06;;;;;;;8.40;6.30;;;19.10;99.90;;;;;;5048981;28;20032;-89
2023/06/05 13:01:36;;;;;;;8.43;6.20;;;19.10;99.90;;;;;;5044294;28;20074;-89
2023/06/05 13:04:02;;;;;;;8.25;5.78;;;19.00;99.90;;;;;;5044453;28;20028;-89
2023/06/05 13:06:38;;;;;;;8.18;6.05;;;19.00;99.90;;;;;;5074238;28;20060;-89
2023/06/05 13:09:05;;;;;;;8.52;6.07;;;19.20;99.90;;;;;;5044875;28;20052;-90
2023/06/05 13:11:33;;;;;;;8.55;5.97;;;19.20;99.90;;;;;;5047885;28;20028;-89
2023/06/05 13:14:01;;;;;;;7.65;5.10;;;19.30;99.90;;;;;;5060644;28;20028;-89
2023/06/05 13:16:32;;;;;;;7.88;5.55;;;19.30;99.90;;;;;;5045502;28;20068;-88
2023/06/05 13:19:03;;;;;;;8.60;6.15;;;19.30;99.90;;;;;;5048056;28;20328;-89
2023/06/05 13:21:29;;;;;;;8.73;6.05;;;19.20;99.90;;;;;;5063995;28;20040;-89